createdAt,value
2022-09-09T00:02:57.478Z,16.60
2022-09-09T00:08:00.308Z,16.60
2022-09-09T00:13:03.107Z,16.50
2022-09-09T00:18:05.799Z,16.50
2022-09-09T00:23:09.024Z,16.50
2022-09-09T00:28:11.766Z,16.50
2022-09-09T00:33:15.890Z,16.40
2022-09-09T00:38:19.063Z,16.40
2022-09-09T00:43:23.254Z,16.50
2022-09-09T00:48:26.302Z,16.50
2022-09-09T00:53:30.936Z,16.40
2022-09-09T00:58:34.286Z,16.40
2022-09-09T01:03:37.218Z,16.30
2022-09-09T01:08:40.483Z,16.30
2022-09-09T01:13:43.179Z,16.20
2022-09-09T01:18:45.869Z,16.20
2022-09-09T01:23:50.141Z,16.20
2022-09-09T01:28:53.630Z,16.30
2022-09-09T01:33:56.343Z,16.40
2022-09-09T01:38:59.072Z,16.40
2022-09-09T01:44:01.800Z,16.50
2022-09-09T01:49:04.509Z,16.60
2022-09-09T01:54:07.198Z,16.50
2022-09-09T01:59:10.186Z,16.60
2022-09-09T02:04:12.843Z,16.50
2022-09-09T02:09:15.567Z,16.50
2022-09-09T02:14:18.272Z,16.40
2022-09-09T02:19:27.775Z,16.20
2022-09-09T02:24:30.541Z,16.20
2022-09-09T02:29:33.225Z,16.10
2022-09-09T02:34:35.945Z,16.00
2022-09-09T02:39:38.688Z,16.10
2022-09-09T02:44:41.901Z,16.10
2022-09-09T02:49:44.624Z,16.20
2022-09-09T02:54:47.315Z,16.30
2022-09-09T02:59:50.014Z,16.30
2022-09-09T03:04:52.916Z,16.40
2022-09-09T03:09:55.952Z,16.40
2022-09-09T03:14:58.759Z,16.30
2022-09-09T03:20:02.631Z,16.20
2022-09-09T03:25:05.346Z,16.20
2022-09-09T03:30:08.411Z,16.20
2022-09-09T03:35:11.127Z,16.10
2022-09-09T03:40:13.960Z,16.00
2022-09-09T03:45:18.054Z,16.00
2022-09-09T03:50:20.758Z,15.90
2022-09-09T03:55:23.501Z,16.20
2022-09-09T04:00:26.266Z,16.40
2022-09-09T04:05:29.465Z,16.30
2022-09-09T04:10:32.472Z,16.40
2022-09-09T04:15:36.681Z,16.50
2022-09-09T04:20:39.545Z,16.60
2022-09-09T04:25:42.395Z,16.40
2022-09-09T04:30:45.286Z,17.20
2022-09-09T04:35:47.999Z,16.50
2022-09-09T04:40:50.795Z,16.50
2022-09-09T04:45:53.615Z,16.40
2022-09-09T04:56:00.904Z,15.90
2022-09-09T05:01:03.757Z,16.20
2022-09-09T05:06:07.112Z,15.90
2022-09-09T05:11:10.705Z,15.60
2022-09-09T05:16:14.023Z,16.00
2022-09-09T05:21:16.834Z,16.20
2022-09-09T05:26:19.546Z,16.30
2022-09-09T05:31:22.379Z,16.30
2022-09-09T05:36:25.136Z,16.20
2022-09-09T05:41:31.298Z,16.20
2022-09-09T05:46:34.118Z,16.50
2022-09-09T05:51:36.833Z,17.00
2022-09-09T05:56:40.000Z,17.10
2022-09-09T06:01:43.382Z,17.10
2022-09-09T06:06:46.246Z,17.40
2022-09-09T06:11:49.636Z,17.60
2022-09-09T06:16:52.363Z,17.90
2022-09-09T06:21:55.981Z,17.50
2022-09-09T06:26:59.124Z,17.20
2022-09-09T06:32:02.005Z,17.00
2022-09-09T06:37:05.712Z,17.10
2022-09-09T06:42:10.348Z,17.00
2022-09-09T06:47:14.192Z,17.00
2022-09-09T06:52:19.339Z,16.90
2022-09-09T06:57:36.508Z,17.00
2022-09-09T07:02:42.205Z,17.20
2022-09-09T07:07:45.210Z,17.50
2022-09-09T07:12:48.008Z,17.70
2022-09-09T07:17:50.819Z,17.70
2022-09-09T07:22:54.190Z,17.70
2022-09-09T07:27:57.025Z,17.50
2022-09-09T07:33:00.418Z,17.00
2022-09-09T07:38:03.291Z,16.80
2022-09-09T07:43:06.009Z,16.80
2022-09-09T07:48:08.918Z,17.00
2022-09-09T07:53:11.694Z,17.40
2022-09-09T07:58:14.549Z,17.80
2022-09-09T08:03:17.463Z,18.20
2022-09-09T08:08:25.741Z,18.40
2022-09-09T08:13:29.324Z,18.70
2022-09-09T08:18:32.332Z,19.00
2022-09-09T08:23:35.270Z,19.00
2022-09-09T08:28:38.115Z,19.10
2022-09-09T08:33:40.863Z,19.10
2022-09-09T08:38:43.704Z,19.10
2022-09-09T08:43:46.506Z,19.30
2022-09-09T08:48:49.930Z,19.30
2022-09-09T08:53:56.424Z,19.20
2022-09-09T09:04:07.065Z,18.70
2022-09-09T09:09:10.758Z,18.20
2022-09-09T09:14:13.883Z,17.90
2022-09-09T09:19:17.463Z,17.70
2022-09-09T09:24:21.363Z,17.80
2022-09-09T09:29:24.906Z,18.00
2022-09-09T09:34:27.738Z,18.20
2022-09-09T09:44:53.277Z,19.20
2022-09-09T09:49:56.333Z,19.70
2022-09-09T09:55:03.953Z,19.90
2022-09-09T10:00:10.939Z,19.70
2022-09-09T10:05:13.786Z,19.60
2022-09-09T10:10:16.608Z,19.50
2022-09-09T10:15:19.757Z,19.40
2022-09-09T10:20:22.581Z,19.20
2022-09-09T10:25:25.425Z,19.10
2022-09-09T10:30:28.137Z,19.00
2022-09-09T10:35:30.961Z,19.20
2022-09-09T10:40:34.728Z,19.30
2022-09-09T10:45:37.637Z,19.60
2022-09-09T10:56:04.322Z,20.50
2022-09-09T11:01:08.936Z,20.90
2022-09-09T11:06:12.190Z,20.90
2022-09-09T11:11:17.796Z,21.30
2022-09-09T11:16:20.704Z,21.80
2022-09-09T11:21:23.509Z,22.10
2022-09-09T11:26:26.203Z,22.60
2022-09-09T11:31:29.874Z,22.70
2022-09-09T11:36:33.071Z,22.80
2022-09-09T11:41:35.752Z,23.00
2022-09-09T11:46:39.151Z,23.20
2022-09-09T11:51:42.010Z,23.60
2022-09-09T11:56:44.971Z,23.40
2022-09-09T12:01:47.656Z,23.40
2022-09-09T12:06:51.811Z,23.10
2022-09-09T12:11:54.664Z,22.80
2022-09-09T12:16:57.808Z,22.60
2022-09-09T12:22:03.954Z,22.50
2022-09-09T12:27:07.610Z,22.60
2022-09-09T12:32:10.717Z,22.60
2022-09-09T12:37:16.418Z,22.60
2022-09-09T12:42:19.238Z,22.70
2022-09-09T12:47:22.029Z,22.80
2022-09-09T12:52:24.821Z,23.20
2022-09-09T12:57:27.988Z,23.40
2022-09-09T13:02:31.167Z,23.70
2022-09-09T13:07:34.067Z,23.70
2022-09-09T13:12:36.828Z,23.50
2022-09-09T13:17:42.721Z,23.20
2022-09-09T13:22:46.575Z,22.80
2022-09-09T13:27:49.282Z,22.70
2022-09-09T13:32:52.077Z,22.70
2022-09-09T13:37:56.028Z,22.90
2022-09-09T13:42:59.852Z,23.20
2022-09-09T13:48:03.308Z,23.20
2022-09-09T13:53:06.870Z,23.00
2022-09-09T13:58:09.734Z,22.60
2022-09-09T14:03:13.019Z,22.10
2022-09-09T14:08:15.846Z,21.90
2022-09-09T14:13:18.681Z,21.70
2022-09-09T14:18:23.440Z,21.40
2022-09-09T14:23:26.110Z,21.30
2022-09-09T14:28:51.956Z,21.00
2022-09-09T14:33:53.714Z,21.10
2022-09-09T14:38:57.548Z,21.20
2022-09-09T14:44:01.045Z,21.30
2022-09-09T14:49:04.856Z,21.00
2022-09-09T14:54:07.920Z,20.90
2022-09-09T14:59:10.860Z,20.80
2022-09-09T15:04:13.781Z,20.70
2022-09-09T15:09:16.510Z,20.50
2022-09-09T15:14:22.281Z,20.50
2022-09-09T15:19:26.657Z,20.40
2022-09-09T15:24:29.818Z,20.30
2022-09-09T15:29:32.606Z,20.60
2022-09-09T15:34:35.459Z,20.60
2022-09-09T15:39:38.999Z,20.70
2022-09-09T15:44:43.213Z,21.00
2022-09-09T15:49:46.013Z,21.00
2022-09-09T15:54:48.841Z,21.00
2022-09-09T15:59:51.715Z,20.90
2022-09-09T16:04:55.758Z,20.80
2022-09-09T16:09:58.568Z,20.80
2022-09-09T16:15:02.552Z,20.60
2022-09-09T16:20:06.837Z,20.10
2022-09-09T16:25:09.772Z,19.90
2022-09-09T16:30:12.580Z,19.70
2022-09-09T16:35:15.602Z,19.80
2022-09-09T16:40:18.472Z,20.00
2022-09-09T16:45:21.380Z,20.00
2022-09-09T16:50:24.271Z,19.70
2022-09-09T16:55:27.172Z,19.30
2022-09-09T17:00:29.912Z,19.10
2022-09-09T17:05:33.829Z,18.90
2022-09-09T17:10:37.154Z,18.70
2022-09-09T17:15:41.261Z,18.50
2022-09-09T17:20:46.979Z,18.40
2022-09-09T17:25:50.142Z,18.20
2022-09-09T17:30:57.687Z,18.00
2022-09-09T17:36:00.858Z,17.90
2022-09-09T17:41:03.753Z,17.80
2022-09-09T17:46:07.003Z,17.60
2022-09-09T17:51:10.042Z,17.60
2022-09-09T17:56:12.933Z,17.40
2022-09-09T18:01:15.853Z,17.30
2022-09-09T18:06:18.842Z,17.20
2022-09-09T18:11:27.493Z,17.10
2022-09-09T18:16:30.611Z,17.10
2022-09-09T18:21:33.692Z,17.00
2022-09-09T18:26:36.466Z,16.90
2022-09-09T18:31:39.292Z,16.90
2022-09-09T18:36:42.429Z,16.80
2022-09-09T18:41:45.201Z,16.80
2022-09-09T18:46:48.548Z,16.60
2022-09-09T18:51:53.175Z,16.60
2022-09-09T18:56:56.365Z,16.60
2022-09-09T19:02:02.762Z,16.60
2022-09-09T19:07:05.770Z,16.50
2022-09-09T19:12:08.617Z,16.50
2022-09-09T19:17:13.370Z,16.50
2022-09-09T19:22:16.325Z,16.70
2022-09-09T19:27:19.857Z,16.60
2022-09-09T19:32:52.332Z,16.40
2022-09-09T19:37:46.585Z,15.40
2022-09-09T19:42:54.048Z,14.70
2022-09-09T19:47:56.884Z,14.60
2022-09-09T19:53:00.266Z,14.60
2022-09-09T19:58:04.371Z,14.60
2022-09-09T20:03:18.676Z,14.70
2022-09-09T20:08:22.136Z,14.70
2022-09-09T20:13:24.809Z,14.50
2022-09-09T20:18:27.881Z,14.40
2022-09-09T20:23:30.630Z,14.30
2022-09-09T20:28:34.410Z,14.30
2022-09-09T20:33:37.404Z,14.10
2022-09-09T20:38:40.122Z,14.10
2022-09-09T20:43:43.189Z,14.00
2022-09-09T20:48:46.065Z,13.90
2022-09-09T20:53:49.311Z,13.90
2022-09-09T20:58:52.352Z,13.90
2022-09-09T21:03:55.527Z,13.90
2022-09-09T21:08:58.371Z,14.00
2022-09-09T21:14:01.199Z,14.10
2022-09-09T21:19:04.803Z,14.30
2022-09-09T21:24:07.579Z,14.50
2022-09-09T21:29:10.324Z,14.60
2022-09-09T21:34:15.437Z,14.80
2022-09-09T21:39:18.180Z,15.00
2022-09-09T21:44:21.555Z,15.10
2022-09-09T21:49:24.374Z,15.20
2022-09-09T21:54:31.182Z,15.20
2022-09-09T21:59:33.931Z,15.00
2022-09-09T22:04:37.590Z,14.80
2022-09-09T22:09:40.370Z,14.50
2022-09-09T22:14:43.232Z,14.40
2022-09-09T22:19:46.176Z,14.40
2022-09-09T22:24:48.979Z,14.30
2022-09-09T22:29:53.294Z,14.20
2022-09-09T22:34:56.379Z,14.10
2022-09-09T22:39:59.452Z,14.10
2022-09-09T22:45:02.431Z,14.20
2022-09-09T22:50:05.540Z,14.20
2022-09-09T22:55:09.696Z,14.10
2022-09-09T23:00:15.308Z,14.10
2022-09-09T23:05:22.118Z,14.00
2022-09-09T23:10:25.656Z,14.00
2022-09-09T23:15:29.720Z,13.80
2022-09-09T23:20:33.652Z,13.80
2022-09-09T23:25:36.697Z,13.70
2022-09-09T23:30:39.828Z,13.70
2022-09-09T23:35:43.933Z,13.60
2022-09-09T23:40:47.363Z,13.50
2022-09-09T23:45:52.670Z,13.40
2022-09-09T23:50:56.643Z,13.30
2022-09-09T23:56:00.766Z,13.10
